sensor_id;sensor_type;location;lat;lon;timestamp;pressure;altitude;pressure_sealevel;temperature;humidity
61554;BME280;47425;51.976;5.326;2023-07-30T00:01:54;100761.47;;;21.37;55.40
61554;BME280;47425;51.976;5.326;2023-07-30T00:04:20;100773.41;;;21.44;56.01
61554;BME280;47425;51.976;5.326;2023-07-30T00:06:47;100763.50;;;21.46;55.58
61554;BME280;47425;51.976;5.326;2023-07-30T00:09:17;100758.53;;;21.54;54.98
61554;BME280;47425;51.976;5.326;2023-07-30T00:11:43;100771.06;;;21.52;55.14
61554;BME280;47425;51.976;5.326;2023-07-30T00:14:14;100769.13;;;21.41;55.20
61554;BME280;47425;51.976;5.326;2023-07-30T00:16:46;100759.75;;;21.36;55.22
61554;BME280;47425;51.976;5.326;2023-07-30T00:19:13;100771.91;;;21.40;55.81
61554;BME280;47425;51.976;5.326;2023-07-30T00:21:41;100768.69;;;21.35;55.35
61554;BME280;47425;51.976;5.326;2023-07-30T00:24:14;100765.91;;;21.36;54.85
61554;BME280;47425;51.976;5.326;2023-07-30T00:26:43;100773.69;;;21.26;55.40
61554;BME280;47425;51.976;5.326;2023-07-30T00:29:11;100776.44;;;21.25;55.44
61554;BME280;47425;51.976;5.326;2023-07-30T00:31:38;100770.22;;;21.11;55.35
61554;BME280;47425;51.976;5.326;2023-07-30T00:34:06;100777.97;;;21.02;55.87
61554;BME280;47425;51.976;5.326;2023-07-30T00:36:35;100777.69;;;20.92;56.17
61554;BME280;47425;51.976;5.326;2023-07-30T00:39:07;100776.63;;;20.82;55.25
61554;BME280;47425;51.976;5.326;2023-07-30T00:41:38;100765.97;;;20.82;56.84
61554;BME280;47425;51.976;5.326;2023-07-30T00:44:11;100772.97;;;20.83;54.32
61554;BME280;47425;51.976;5.326;2023-07-30T00:46:46;100771.22;;;20.69;55.88
61554;BME280;47425;51.976;5.326;2023-07-30T00:49:22;100771.41;;;20.51;56.86
61554;BME280;47425;51.976;5.326;2023-07-30T00:51:48;100771.25;;;20.40;56.12
61554;BME280;47425;51.976;5.326;2023-07-30T00:54:16;100765.63;;;20.30;56.40
61554;BME280;47425;51.976;5.326;2023-07-30T00:56:50;100764.13;;;20.26;57.86
61554;BME280;47425;51.976;5.326;2023-07-30T00:59:21;100770.31;;;20.26;56.55
61554;BME280;47425;51.976;5.326;2023-07-30T01:01:51;100770.00;;;20.31;57.17
61554;BME280;47425;51.976;5.326;2023-07-30T01:04:21;100767.81;;;20.38;57.35
61554;BME280;47425;51.976;5.326;2023-07-30T01:06:51;100772.94;;;20.41;57.83
61554;BME280;47425;51.976;5.326;2023-07-30T01:09:18;100775.94;;;20.49;57.60
61554;BME280;47425;51.976;5.326;2023-07-30T01:11:46;100782.53;;;20.43;57.10
61554;BME280;47425;51.976;5.326;2023-07-30T01:14:28;100782.25;;;20.34;58.14
61554;BME280;47425;51.976;5.326;2023-07-30T01:16:57;100788.91;;;20.26;58.15
61554;BME280;47425;51.976;5.326;2023-07-30T01:19:30;100791.66;;;20.25;58.06
61554;BME280;47425;51.976;5.326;2023-07-30T01:21:59;100797.94;;;20.24;56.81
61554;BME280;47425;51.976;5.326;2023-07-30T01:24:25;100791.28;;;20.17;57.49
61554;BME280;47425;51.976;5.326;2023-07-30T01:27:01;100799.72;;;20.23;58.32
61554;BME280;47425;51.976;5.326;2023-07-30T01:29:35;100799.63;;;20.39;57.86
61554;BME280;47425;51.976;5.326;2023-07-30T01:32:07;100805.25;;;20.35;56.75
61554;BME280;47425;51.976;5.326;2023-07-30T01:34:39;100808.19;;;20.30;57.66
61554;BME280;47425;51.976;5.326;2023-07-30T01:37:12;100797.16;;;20.22;57.28
61554;BME280;47425;51.976;5.326;2023-07-30T01:39:42;100812.47;;;20.33;58.55
61554;BME280;47425;51.976;5.326;2023-07-30T01:42:11;100805.25;;;20.35;58.30
61554;BME280;47425;51.976;5.326;2023-07-30T01:44:38;100795.09;;;20.41;57.60
61554;BME280;47425;51.976;5.326;2023-07-30T01:47:06;100797.53;;;20.30;57.29
61554;BME280;47425;51.976;5.326;2023-07-30T01:49:33;100802.97;;;20.28;58.27
61554;BME280;47425;51.976;5.326;2023-07-30T01:52:00;100802.28;;;20.25;57.05
61554;BME280;47425;51.976;5.326;2023-07-30T01:54:30;100800.97;;;20.32;58.58
61554;BME280;47425;51.976;5.326;2023-07-30T01:56:59;100796.50;;;20.47;58.26
61554;BME280;47425;51.976;5.326;2023-07-30T01:59:29;100796.19;;;20.52;57.72
61554;BME280;47425;51.976;5.326;2023-07-30T02:01:56;100794.56;;;20.49;57.01
61554;BME280;47425;51.976;5.326;2023-07-30T02:04:22;100802.28;;;20.54;57.21
61554;BME280;47425;51.976;5.326;2023-07-30T02:06:49;100799.72;;;20.52;56.91
61554;BME280;47425;51.976;5.326;2023-07-30T02:09:31;100789.72;;;20.56;57.08
61554;BME280;47425;51.976;5.326;2023-07-30T02:12:00;100800.28;;;20.57;57.43
61554;BME280;47425;51.976;5.326;2023-07-30T02:14:27;100798.09;;;20.64;57.09
61554;BME280;47425;51.976;5.326;2023-07-30T02:17:01;100794.56;;;20.63;56.11
61554;BME280;47425;51.976;5.326;2023-07-30T02:19:27;100802.44;;;20.65;56.80
61554;BME280;47425;51.976;5.326;2023-07-30T02:21:58;100793.16;;;20.72;56.64
61554;BME280;47425;51.976;5.326;2023-07-30T02:24:28;100807.13;;;20.61;57.05
61554;BME280;47425;51.976;5.326;2023-07-30T02:26:55;100799.63;;;20.54;57.51
61554;BME280;47425;51.976;5.326;2023-07-30T02:29:22;100790.50;;;20.58;57.98
61554;BME280;47425;51.976;5.326;2023-07-30T02:31:48;100791.91;;;20.78;56.55
61554;BME280;47425;51.976;5.326;2023-07-30T02:34:18;100792.75;;;20.78;57.21
61554;BME280;47425;51.976;5.326;2023-07-30T02:36:45;100797.13;;;20.79;57.16
61554;BME280;47425;51.976;5.326;2023-07-30T02:39:12;100792.59;;;20.82;56.71
61554;BME280;47425;51.976;5.326;2023-07-30T02:41:40;100793.28;;;20.71;56.84
61554;BME280;47425;51.976;5.326;2023-07-30T02:44:08;100784.97;;;20.75;57.16
61554;BME280;47425;51.976;5.326;2023-07-30T02:46:36;100782.88;;;20.52;57.40
61554;BME280;47425;51.976;5.326;2023-07-30T02:49:02;100781.22;;;20.51;57.39
61554;BME280;47425;51.976;5.326;2023-07-30T02:51:31;100782.25;;;20.48;57.78
61554;BME280;47425;51.976;5.326;2023-07-30T02:54:03;100789.47;;;20.46;58.00
61554;BME280;47425;51.976;5.326;2023-07-30T02:56:30;100784.53;;;20.40;57.11
61554;BME280;47425;51.976;5.326;2023-07-30T02:59:02;100783.31;;;20.31;58.66
61554;BME280;47425;51.976;5.326;2023-07-30T03:01:34;100782.25;;;20.34;57.31
61554;BME280;47425;51.976;5.326;2023-07-30T03:04:05;100783.66;;;20.39;57.48
61554;BME280;47425;51.976;5.326;2023-07-30T03:06:32;100776.84;;;20.35;58.40
61554;BME280;47425;51.976;5.326;2023-07-30T03:09:00;100781.31;;;20.35;58.69
61554;BME280;47425;51.976;5.326;2023-07-30T03:11:28;100783.19;;;20.33;57.74
61554;BME280;47425;51.976;5.326;2023-07-30T03:14:16;100775.13;;;20.05;58.19
61554;BME280;47425;51.976;5.326;2023-07-30T03:16:50;100776.38;;;20.00;58.25
61554;BME280;47425;51.976;5.326;2023-07-30T03:19:17;100773.03;;;19.96;58.96
61554;BME280;47425;51.976;5.326;2023-07-30T03:21:44;100782.72;;;19.97;58.91
61554;BME280;47425;51.976;5.326;2023-07-30T03:24:10;100783.00;;;19.92;59.37
61554;BME280;47425;51.976;5.326;2023-07-30T03:26:37;100782.19;;;19.76;60.19
61554;BME280;47425;51.976;5.326;2023-07-30T03:29:04;100786.66;;;19.75;59.84
61554;BME280;47425;51.976;5.326;2023-07-30T03:31:34;100780.28;;;19.78;60.20
61554;BME280;47425;51.976;5.326;2023-07-30T03:34:00;100779.28;;;19.81;59.80
61554;BME280;47425;51.976;5.326;2023-07-30T03:36:27;100791.25;;;19.88;60.50
61554;BME280;47425;51.976;5.326;2023-07-30T03:38:55;100791.28;;;20.02;60.45
61554;BME280;47425;51.976;5.326;2023-07-30T03:41:22;100792.31;;;20.14;59.00
61554;BME280;47425;51.976;5.326;2023-07-30T03:43:51;100799.91;;;20.06;60.09
61554;BME280;47425;51.976;5.326;2023-07-30T03:46:18;100787.66;;;20.03;59.27
61554;BME280;47425;51.976;5.326;2023-07-30T03:48:47;100801.16;;;20.15;59.59
61554;BME280;47425;51.976;5.326;2023-07-30T03:51:14;100807.91;;;20.35;59.20
61554;BME280;47425;51.976;5.326;2023-07-30T03:53:41;100806.47;;;20.43;58.73
61554;BME280;47425;51.976;5.326;2023-07-30T03:56:10;100806.38;;;20.45;58.68
61554;BME280;47425;51.976;5.326;2023-07-30T03:58:36;100804.75;;;20.42;58.45
61554;BME280;47425;51.976;5.326;2023-07-30T04:01:03;100806.84;;;20.52;58.74
61554;BME280;47425;51.976;5.326;2023-07-30T04:03:30;100800.75;;;20.64;58.27
61554;BME280;47425;51.976;5.326;2023-07-30T04:06:01;100791.25;;;20.74;58.39
61554;BME280;47425;51.976;5.326;2023-07-30T04:08:28;100807.13;;;20.76;58.07
61554;BME280;47425;51.976;5.326;2023-07-30T04:10:58;100797.34;;;20.76;58.19
61554;BME280;47425;51.976;5.326;2023-07-30T04:13:25;100809.97;;;20.87;57.73
61554;BME280;47425;51.976;5.326;2023-07-30T04:15:52;100797.94;;;20.94;57.50
61554;BME280;47425;51.976;5.326;2023-07-30T04:18:22;100807.66;;;20.95;57.32
61554;BME280;47425;51.976;5.326;2023-07-30T04:20:49;100806.22;;;21.04;57.21
61554;BME280;47425;51.976;5.326;2023-07-30T04:23:17;100803.84;;;21.00;57.15
61554;BME280;47425;51.976;5.326;2023-07-30T04:25:48;100815.16;;;21.03;57.53
61554;BME280;47425;51.976;5.326;2023-07-30T04:28:14;100805.09;;;20.94;57.28
61554;BME280;47425;51.976;5.326;2023-07-30T04:30:42;100815.06;;;20.90;57.75
61554;BME280;47425;51.976;5.326;2023-07-30T04:33:12;100817.75;;;20.90;57.91
61554;BME280;47425;51.976;5.326;2023-07-30T04:35:41;100822.41;;;20.87;58.08
61554;BME280;47425;51.976;5.326;2023-07-30T04:38:09;100817.59;;;20.79;57.98
61554;BME280;47425;51.976;5.326;2023-07-30T04:40:39;100818.78;;;20.88;58.05
61554;BME280;47425;51.976;5.326;2023-07-30T04:43:09;100822.97;;;20.92;57.91
61554;BME280;47425;51.976;5.326;2023-07-30T04:45:36;100825.59;;;21.06;57.43
61554;BME280;47425;51.976;5.326;2023-07-30T04:48:08;100826.59;;;21.18;57.27
61554;BME280;47425;51.976;5.326;2023-07-30T04:50:36;100828.47;;;21.31;56.86
61554;BME280;47425;51.976;5.326;2023-07-30T04:53:06;100833.28;;;21.38;56.51
61554;BME280;47425;51.976;5.326;2023-07-30T04:55:34;100831.28;;;21.42;56.19
61554;BME280;47425;51.976;5.326;2023-07-30T04:58:02;100838.72;;;21.37;56.21
61554;BME280;47425;51.976;5.326;2023-07-30T05:00:29;100828.63;;;21.42;56.45
61554;BME280;47425;51.976;5.326;2023-07-30T05:02:56;100829.44;;;21.57;56.05
61554;BME280;47425;51.976;5.326;2023-07-30T05:05:22;100833.03;;;21.56;55.40
61554;BME280;47425;51.976;5.326;2023-07-30T05:07:52;100841.28;;;21.51;56.02
61554;BME280;47425;51.976;5.326;2023-07-30T05:10:18;100835.44;;;21.46;55.87
61554;BME280;47425;51.976;5.326;2023-07-30T05:12:45;100846.81;;;21.35;56.26
61554;BME280;47425;51.976;5.326;2023-07-30T05:15:14;100844.38;;;21.18;56.99
61554;BME280;47425;51.976;5.326;2023-07-30T05:17:45;100837.38;;;21.17;56.83
61554;BME280;47425;51.976;5.326;2023-07-30T05:20:11;100841.44;;;21.22;56.67
61554;BME280;47425;51.976;5.326;2023-07-30T05:22:44;100851.03;;;21.25;56.90
61554;BME280;47425;51.976;5.326;2023-07-30T05:25:11;100850.72;;;21.29;56.83
61554;BME280;47425;51.976;5.326;2023-07-30T05:27:38;100846.16;;;21.32;56.63
61554;BME280;47425;51.976;5.326;2023-07-30T05:30:06;100854.25;;;21.30;56.75
61554;BME280;47425;51.976;5.326;2023-07-30T05:32:34;100844.34;;;21.32;56.81
61554;BME280;47425;51.976;5.326;2023-07-30T05:35:02;100839.34;;;21.40;56.34
61554;BME280;47425;51.976;5.326;2023-07-30T05:37:29;100839.13;;;21.58;56.34
61554;BME280;47425;51.976;5.326;2023-07-30T05:39:56;100842.75;;;21.57;55.65
61554;BME280;47425;51.976;5.326;2023-07-30T05:42:22;100842.38;;;21.49;56.03
61554;BME280;47425;51.976;5.326;2023-07-30T05:44:49;100850.16;;;21.52;56.03
61554;BME280;47425;51.976;5.326;2023-07-30T05:47:17;100847.59;;;21.50;56.02
61554;BME280;47425;51.976;5.326;2023-07-30T05:49:48;100837.34;;;21.44;55.84
61554;BME280;47425;51.976;5.326;2023-07-30T05:52:15;100849.97;;;21.55;56.25
61554;BME280;47425;51.976;5.326;2023-07-30T05:54:42;100853.00;;;21.63;56.06
61554;BME280;47425;51.976;5.326;2023-07-30T05:57:08;100856.81;;;21.59;56.26
61554;BME280;47425;51.976;5.326;2023-07-30T05:59:41;100849.97;;;21.55;56.20
61554;BME280;47425;51.976;5.326;2023-07-30T06:02:13;100844.16;;;21.62;56.12
61554;BME280;47425;51.976;5.326;2023-07-30T06:04:40;100843.31;;;21.75;55.72
61554;BME280;47425;51.976;5.326;2023-07-30T06:07:08;100848.88;;;21.85;55.69
61554;BME280;47425;51.976;5.326;2023-07-30T06:09:36;100852.69;;;21.81;55.50
61554;BME280;47425;51.976;5.326;2023-07-30T06:12:03;100838.31;;;21.70;55.82
61554;BME280;47425;51.976;5.326;2023-07-30T06:14:33;100843.03;;;21.79;55.87
61554;BME280;47425;51.976;5.326;2023-07-30T06:17:00;100847.25;;;21.69;56.08
61554;BME280;47425;51.976;5.326;2023-07-30T06:19:27;100847.16;;;21.71;55.63
61554;BME280;47425;51.976;5.326;2023-07-30T06:21:54;100849.50;;;21.75;55.69
61554;BME280;47425;51.976;5.326;2023-07-30T06:24:24;100848.97;;;21.70;55.98
61554;BME280;47425;51.976;5.326;2023-07-30T06:26:54;100853.31;;;21.58;56.48
61554;BME280;47425;51.976;5.326;2023-07-30T06:29:20;100858.16;;;21.52;56.58
61554;BME280;47425;51.976;5.326;2023-07-30T06:31:50;100864.53;;;21.49;56.51
61554;BME280;47425;51.976;5.326;2023-07-30T06:34:17;100852.25;;;21.61;56.20
61554;BME280;47425;51.976;5.326;2023-07-30T06:36:43;100857.59;;;21.61;56.60
61554;BME280;47425;51.976;5.326;2023-07-30T06:39:11;100853.19;;;21.60;56.81
61554;BME280;47425;51.976;5.326;2023-07-30T06:41:39;100846.59;;;21.66;56.49
61554;BME280;47425;51.976;5.326;2023-07-30T06:44:06;100847.81;;;21.74;55.72
61554;BME280;47425;51.976;5.326;2023-07-30T06:46:34;100849.09;;;21.82;55.42
61554;BME280;47425;51.976;5.326;2023-07-30T06:49:00;100859.97;;;21.78;55.61
61554;BME280;47425;51.976;5.326;2023-07-30T06:51:31;100844.16;;;21.75;55.78
61554;BME280;47425;51.976;5.326;2023-07-30T06:54:00;100847.91;;;21.86;55.50
61554;BME280;47425;51.976;5.326;2023-07-30T06:56:28;100845.28;;;21.99;54.90
61554;BME280;47425;51.976;5.326;2023-07-30T06:58:56;100844.09;;;22.16;54.80
61554;BME280;47425;51.976;5.326;2023-07-30T07:01:24;100848.06;;;22.23;54.45
61554;BME280;47425;51.976;5.326;2023-07-30T07:03:52;100854.25;;;22.10;54.54
61554;BME280;47425;51.976;5.326;2023-07-30T07:06:19;100857.56;;;22.01;54.99
61554;BME280;47425;51.976;5.326;2023-07-30T07:08:48;100851.69;;;21.96;54.86
61554;BME280;47425;51.976;5.326;2023-07-30T07:11:17;100844.72;;;21.93;55.11
61554;BME280;47425;51.976;5.326;2023-07-30T07:13:44;100865.56;;;22.01;54.99
61554;BME280;47425;51.976;5.326;2023-07-30T07:16:13;100873.13;;;22.07;54.66
61554;BME280;47425;51.976;5.326;2023-07-30T07:18:39;100874.19;;;22.05;54.74
61554;BME280;47425;51.976;5.326;2023-07-30T07:21:07;100869.16;;;22.00;54.76
61554;BME280;47425;51.976;5.326;2023-07-30T07:23:34;100868.41;;;21.98;55.04
61554;BME280;47425;51.976;5.326;2023-07-30T07:26:02;100872.56;;;22.02;54.65
61554;BME280;47425;51.976;5.326;2023-07-30T07:28:32;100873.00;;;21.96;54.50
61554;BME280;47425;51.976;5.326;2023-07-30T07:30:59;100884.06;;;21.77;55.02
61554;BME280;47425;51.976;5.326;2023-07-30T07:33:30;100879.63;;;21.63;55.58
61554;BME280;47425;51.976;5.326;2023-07-30T07:36:03;100881.25;;;21.51;55.87
61554;BME280;47425;51.976;5.326;2023-07-30T07:38:32;100886.66;;;21.37;56.05
61554;BME280;47425;51.976;5.326;2023-07-30T07:40:59;100886.59;;;21.24;56.44
61554;BME280;47425;51.976;5.326;2023-07-30T07:43:26;100881.22;;;21.11;57.30
61554;BME280;47425;51.976;5.326;2023-07-30T07:45:52;100895.16;;;21.29;56.82
61554;BME280;47425;51.976;5.326;2023-07-30T07:48:19;100880.69;;;21.33;56.40
61554;BME280;47425;51.976;5.326;2023-07-30T07:50:47;100875.00;;;21.52;56.33
61554;BME280;47425;51.976;5.326;2023-07-30T07:53:15;100876.03;;;21.64;55.79
61554;BME280;47425;51.976;5.326;2023-07-30T07:55:44;100878.41;;;21.82;55.53
61554;BME280;47425;51.976;5.326;2023-07-30T07:58:10;100889.22;;;22.06;54.92
61554;BME280;47425;51.976;5.326;2023-07-30T08:00:40;100874.75;;;22.23;54.32
61554;BME280;47425;51.976;5.326;2023-07-30T08:03:06;100879.34;;;22.34;53.92
61554;BME280;47425;51.976;5.326;2023-07-30T08:05:34;100876.91;;;22.56;53.08
61554;BME280;47425;51.976;5.326;2023-07-30T08:08:04;100874.34;;;22.55;53.26
61554;BME280;47425;51.976;5.326;2023-07-30T08:10:30;100873.25;;;22.70;52.94
61554;BME280;47425;51.976;5.326;2023-07-30T08:12:57;100868.50;;;22.87;52.57
61554;BME280;47425;51.976;5.326;2023-07-30T08:15:26;100867.53;;;23.01;52.36
61554;BME280;47425;51.976;5.326;2023-07-30T08:17:54;100861.81;;;23.05;51.68
61554;BME280;47425;51.976;5.326;2023-07-30T08:20:22;100869.13;;;23.03;51.97
61554;BME280;47425;51.976;5.326;2023-07-30T08:22:50;100870.41;;;22.98;51.79
61554;BME280;47425;51.976;5.326;2023-07-30T08:25:22;100875.72;;;22.98;52.06
61554;BME280;47425;51.976;5.326;2023-07-30T08:27:49;100876.50;;;22.87;51.92
61554;BME280;47425;51.976;5.326;2023-07-30T08:30:16;100878.03;;;22.78;52.07
61554;BME280;47425;51.976;5.326;2023-07-30T08:32:47;100882.78;;;22.61;52.45
61554;BME280;47425;51.976;5.326;2023-07-30T08:35:16;100871.75;;;22.53;52.81
61554;BME280;47425;51.976;5.326;2023-07-30T08:37:43;100877.44;;;22.49;52.67
61554;BME280;47425;51.976;5.326;2023-07-30T08:40:10;100887.25;;;22.48;53.12
61554;BME280;47425;51.976;5.326;2023-07-30T08:42:41;100866.53;;;22.52;52.88
61554;BME280;47425;51.976;5.326;2023-07-30T08:45:11;100874.13;;;22.45;52.96
61554;BME280;47425;51.976;5.326;2023-07-30T08:47:40;100878.91;;;22.53;52.91
61554;BME280;47425;51.976;5.326;2023-07-30T08:50:07;100873.38;;;22.43;52.80
61554;BME280;47425;51.976;5.326;2023-07-30T08:52:37;100871.56;;;22.43;52.54
61554;BME280;47425;51.976;5.326;2023-07-30T08:55:05;100885.84;;;22.29;52.61
61554;BME280;47425;51.976;5.326;2023-07-30T08:57:33;100882.53;;;22.26;53.01
61554;BME280;47425;51.976;5.326;2023-07-30T09:00:08;100880.50;;;22.17;53.50
61554;BME280;47425;51.976;5.326;2023-07-30T09:02:39;100880.19;;;22.21;53.49
61554;BME280;47425;51.976;5.326;2023-07-30T09:05:09;100888.63;;;22.28;52.88
61554;BME280;47425;51.976;5.326;2023-07-30T09:07:35;100888.28;;;22.33;53.03
61554;BME280;47425;51.976;5.326;2023-07-30T09:10:03;100888.41;;;22.31;53.16
61554;BME280;47425;51.976;5.326;2023-07-30T09:12:31;100892.78;;;22.45;53.11
61554;BME280;47425;51.976;5.326;2023-07-30T09:14:57;100891.44;;;22.52;52.99
61554;BME280;47425;51.976;5.326;2023-07-30T09:17:26;100894.50;;;22.59;52.76
61554;BME280;47425;51.976;5.326;2023-07-30T09:19:55;100898.44;;;22.66;52.16
61554;BME280;47425;51.976;5.326;2023-07-30T09:22:25;100905.50;;;22.67;52.45
61554;BME280;47425;51.976;5.326;2023-07-30T09:24:53;100893.06;;;22.92;52.11
61554;BME280;47425;51.976;5.326;2023-07-30T09:27:25;100902.66;;;23.07;51.04
61554;BME280;47425;51.976;5.326;2023-07-30T09:29:54;100893.66;;;23.21;50.62
61554;BME280;47425;51.976;5.326;2023-07-30T09:32:27;100896.84;;;23.26;50.18
61554;BME280;47425;51.976;5.326;2023-07-30T09:34:57;100896.50;;;23.31;50.01
61554;BME280;47425;51.976;5.326;2023-07-30T09:37:30;100906.97;;;23.34;50.05
61554;BME280;47425;51.976;5.326;2023-07-30T09:39:58;100914.34;;;23.31;50.94
61554;BME280;47425;51.976;5.326;2023-07-30T09:42:33;100905.41;;;23.19;50.71
61554;BME280;47425;51.976;5.326;2023-07-30T09:45:06;100912.88;;;23.26;50.19
61554;BME280;47425;51.976;5.326;2023-07-30T09:47:36;100911.00;;;23.40;50.46
61554;BME280;47425;51.976;5.326;2023-07-30T09:50:03;100917.09;;;23.42;49.92
61554;BME280;47425;51.976;5.326;2023-07-30T09:52:32;100924.78;;;23.46;50.33
61554;BME280;47425;51.976;5.326;2023-07-30T09:54:59;100903.13;;;23.38;49.94
61554;BME280;47425;51.976;5.326;2023-07-30T09:57:27;100926.66;;;23.33;50.02
61554;BME280;47425;51.976;5.326;2023-07-30T09:59:54;100928.56;;;23.31;49.90
61554;BME280;47425;51.976;5.326;2023-07-30T10:02:21;100917.16;;;23.29;50.06
61554;BME280;47425;51.976;5.326;2023-07-30T10:04:52;100921.59;;;23.41;49.36
61554;BME280;47425;51.976;5.326;2023-07-30T10:07:23;100927.63;;;23.56;49.40
61554;BME280;47425;51.976;5.326;2023-07-30T10:09:52;100933.47;;;23.61;49.08
61554;BME280;47425;51.976;5.326;2023-07-30T10:12:23;100928.13;;;23.61;48.95
61554;BME280;47425;51.976;5.326;2023-07-30T10:14:51;100936.81;;;23.76;49.10
61554;BME280;47425;51.976;5.326;2023-07-30T10:17:18;100942.53;;;23.72;49.29
61554;BME280;47425;51.976;5.326;2023-07-30T10:19:47;100935.41;;;23.59;47.92
61554;BME280;47425;51.976;5.326;2023-07-30T10:22:22;100940.81;;;23.46;49.07
61554;BME280;47425;51.976;5.326;2023-07-30T10:24:56;100923.06;;;23.45;49.00
61554;BME280;47425;51.976;5.326;2023-07-30T10:27:24;100939.22;;;23.44;49.53
61554;BME280;47425;51.976;5.326;2023-07-30T10:30:08;100943.59;;;23.45;49.33
61554;BME280;47425;51.976;5.326;2023-07-30T10:32:40;100935.88;;;23.16;49.89
61554;BME280;47425;51.976;5.326;2023-07-30T10:35:10;100955.19;;;23.07;50.88
61554;BME280;47425;51.976;5.326;2023-07-30T10:37:58;100947.72;;;23.25;50.61
61554;BME280;47425;51.976;5.326;2023-07-30T10:40:24;100945.50;;;23.19;49.70
61554;BME280;47425;51.976;5.326;2023-07-30T10:42:53;100954.13;;;23.09;49.24
61554;BME280;47425;51.976;5.326;2023-07-30T10:45:19;100955.34;;;23.18;49.68
61554;BME280;47425;51.976;5.326;2023-07-30T10:47:53;100957.13;;;23.18;50.13
61554;BME280;47425;51.976;5.326;2023-07-30T10:50:22;100961.53;;;23.19;49.26
61554;BME280;47425;51.976;5.326;2023-07-30T10:52:48;100963.75;;;23.25;49.58
61554;BME280;47425;51.976;5.326;2023-07-30T10:55:17;100955.41;;;23.29;48.75
61554;BME280;47425;51.976;5.326;2023-07-30T10:57:46;100952.94;;;23.39;49.37
61554;BME280;47425;51.976;5.326;2023-07-30T11:00:19;100956.38;;;23.53;49.09
61554;BME280;47425;51.976;5.326;2023-07-30T11:02:53;100964.22;;;23.43;47.57
61554;BME280;47425;51.976;5.326;2023-07-30T11:05:21;100964.78;;;23.35;47.31
61554;BME280;47425;51.976;5.326;2023-07-30T11:07:51;100968.44;;;23.34;46.74
61554;BME280;47425;51.976;5.326;2023-07-30T11:10:19;100967.88;;;23.42;45.72
61554;BME280;47425;51.976;5.326;2023-07-30T11:12:48;100971.75;;;23.62;47.50
61554;BME280;47425;51.976;5.326;2023-07-30T11:15:15;100963.06;;;23.71;45.12
61554;BME280;47425;51.976;5.326;2023-07-30T11:17:42;100958.84;;;23.80;45.97
61554;BME280;47425;51.976;5.326;2023-07-30T11:20:21;100959.38;;;23.85;45.31
61554;BME280;47425;51.976;5.326;2023-07-30T11:22:48;100960.31;;;23.97;46.05
61554;BME280;47425;51.976;5.326;2023-07-30T11:25:16;100969.44;;;24.06;46.59
61554;BME280;47425;51.976;5.326;2023-07-30T11:27:48;100988.53;;;24.01;43.47
61554;BME280;47425;51.976;5.326;2023-07-30T11:30:15;100985.84;;;23.77;43.65
61554;BME280;47425;51.976;5.326;2023-07-30T11:32:42;100984.78;;;23.67;43.39
61554;BME280;47425;51.976;5.326;2023-07-30T11:35:13;100990.28;;;23.52;45.00
61554;BME280;47425;51.976;5.326;2023-07-30T11:37:42;101011.38;;;23.57;46.36
61554;BME280;47425;51.976;5.326;2023-07-30T11:40:11;101006.97;;;23.56;46.09
61554;BME280;47425;51.976;5.326;2023-07-30T11:42:38;101005.03;;;23.58;45.41
61554;BME280;47425;51.976;5.326;2023-07-30T11:45:19;100992.13;;;23.52;45.76
61554;BME280;47425;51.976;5.326;2023-07-30T11:47:47;101004.75;;;23.74;46.28
61554;BME280;47425;51.976;5.326;2023-07-30T11:50:14;101008.91;;;23.78;45.47
61554;BME280;47425;51.976;5.326;2023-07-30T11:52:55;101001.47;;;23.70;45.16
61554;BME280;47425;51.976;5.326;2023-07-30T11:55:27;101004.47;;;23.66;45.15
61554;BME280;47425;51.976;5.326;2023-07-30T11:58:04;101001.41;;;23.59;45.07
61554;BME280;47425;51.976;5.326;2023-07-30T12:00:32;101005.03;;;23.58;46.46
61554;BME280;47425;51.976;5.326;2023-07-30T12:03:02;101002.31;;;23.71;45.19
61554;BME280;47425;51.976;5.326;2023-07-30T12:05:34;101010.75;;;23.77;45.30
61554;BME280;47425;51.976;5.326;2023-07-30T12:08:02;101022.88;;;23.70;46.01
61554;BME280;47425;51.976;5.326;2023-07-30T12:10:43;101013.75;;;23.73;45.96
61554;BME280;47425;51.976;5.326;2023-07-30T12:13:15;101010.75;;;23.77;46.08
61554;BME280;47425;51.976;5.326;2023-07-30T12:15:50;101012.97;;;23.84;46.01
61554;BME280;47425;51.976;5.326;2023-07-30T12:18:18;101017.81;;;23.78;46.29
61554;BME280;47425;51.976;5.326;2023-07-30T12:20:46;101024.22;;;23.76;45.93
61554;BME280;47425;51.976;5.326;2023-07-30T12:23:13;101016.25;;;23.63;46.40
61554;BME280;47425;51.976;5.326;2023-07-30T12:25:40;101016.75;;;23.68;45.85
61554;BME280;47425;51.976;5.326;2023-07-30T12:28:07;101029.97;;;23.58;45.82
61554;BME280;47425;51.976;5.326;2023-07-30T12:30:36;101010.16;;;23.61;45.92
61554;BME280;47425;51.976;5.326;2023-07-30T12:33:06;101023.41;;;23.62;45.79
61554;BME280;47425;51.976;5.326;2023-07-30T12:35:35;101019.66;;;23.65;45.97
61554;BME280;47425;51.976;5.326;2023-07-30T12:38:01;101016.72;;;23.81;45.35
61554;BME280;47425;51.976;5.326;2023-07-30T12:40:28;101020.63;;;23.64;45.53
61554;BME280;47425;51.976;5.326;2023-07-30T12:43:02;101021.53;;;23.52;45.43
61554;BME280;47425;51.976;5.326;2023-07-30T12:45:29;101024.22;;;23.39;44.47
61554;BME280;47425;51.976;5.326;2023-07-30T12:47:58;101029.50;;;23.27;45.25
61554;BME280;47425;51.976;5.326;2023-07-30T12:50:26;101017.97;;;23.14;45.64
61554;BME280;47425;51.976;5.326;2023-07-30T12:52:55;101029.38;;;23.29;46.48
61554;BME280;47425;51.976;5.326;2023-07-30T12:55:21;101029.66;;;23.50;46.20
61554;BME280;47425;51.976;5.326;2023-07-30T12:57:49;101028.41;;;23.67;45.56
61554;BME280;47425;51.976;5.326;2023-07-30T13:00:16;101020.28;;;23.69;44.85